createdAt,value
2023-03-06T00:01:56.413Z,2.60
2023-03-06T00:05:02.383Z,2.70
2023-03-06T00:07:38.401Z,2.70
2023-03-06T00:10:15.759Z,2.60
2023-03-06T00:12:47.569Z,2.60
2023-03-06T00:15:26.920Z,2.70
2023-03-06T00:18:02.080Z,2.70
2023-03-06T00:20:32.876Z,2.70
2023-03-06T00:23:06.794Z,2.70
2023-03-06T00:25:39.001Z,2.90
2023-03-06T00:28:12.673Z,2.80
2023-03-06T00:31:04.692Z,2.70
2023-03-06T00:33:35.992Z,2.70
2023-03-06T00:36:11.378Z,2.70
2023-03-06T00:38:42.075Z,2.70
2023-03-06T00:41:16.261Z,2.60
2023-03-06T00:43:52.861Z,2.70
2023-03-06T00:46:26.703Z,2.60
2023-03-06T00:49:04.463Z,2.60
2023-03-06T00:51:35.454Z,2.60
2023-03-06T00:54:06.805Z,2.60
2023-03-06T00:56:40.594Z,2.60
2023-03-06T00:59:17.753Z,2.60
2023-03-06T01:01:54.636Z,2.60
2023-03-06T01:04:27.264Z,2.60
2023-03-06T01:06:57.709Z,2.60
2023-03-06T01:09:27.488Z,2.60
2023-03-06T01:11:58.131Z,2.60
2023-03-06T01:14:28.656Z,2.70
2023-03-06T01:17:01.954Z,2.70
2023-03-06T01:19:45.856Z,2.70
2023-03-06T01:22:22.134Z,2.70
2023-03-06T01:24:55.296Z,2.70
2023-03-06T01:27:29.304Z,2.70
2023-03-06T01:30:00.039Z,2.70
2023-03-06T01:32:34.599Z,2.70
2023-03-06T01:35:08.117Z,2.70
2023-03-06T01:37:46.551Z,2.60
2023-03-06T01:40:20.648Z,2.60
2023-03-06T01:42:55.171Z,2.70
2023-03-06T01:46:00.907Z,2.70
2023-03-06T01:48:38.335Z,2.70
2023-03-06T01:51:10.662Z,2.80
2023-03-06T01:53:43.580Z,2.80
2023-03-06T01:56:24.525Z,2.80
2023-03-06T01:58:56.570Z,2.70
2023-03-06T02:01:32.781Z,2.70
2023-03-06T02:04:05.022Z,2.70
2023-03-06T02:06:44.952Z,2.70
2023-03-06T02:09:19.950Z,2.80
2023-03-06T02:11:48.799Z,2.70
2023-03-06T02:14:22.271Z,2.70
2023-03-06T02:17:03.204Z,2.70
2023-03-06T02:19:48.217Z,2.70
2023-03-06T02:22:21.580Z,2.70
2023-03-06T02:25:09.626Z,2.80
2023-03-06T02:27:46.221Z,2.80
2023-03-06T02:30:19.557Z,2.70
2023-03-06T02:32:51.907Z,2.60
2023-03-06T02:35:28.747Z,2.60
2023-03-06T02:38:06.386Z,2.60
2023-03-06T02:40:36.932Z,2.60
2023-03-06T02:43:20.272Z,2.60
2023-03-06T02:45:53.291Z,2.70
2023-03-06T02:48:29.825Z,2.60
2023-03-06T02:51:05.759Z,2.50
2023-03-06T02:53:36.729Z,2.60
2023-03-06T02:56:09.792Z,2.60
2023-03-06T02:58:48.207Z,2.60
2023-03-06T03:01:17.084Z,2.60
2023-03-06T03:03:48.648Z,2.60
2023-03-06T03:06:19.539Z,2.60
2023-03-06T03:08:49.990Z,2.50
2023-03-06T03:11:20.563Z,2.60
2023-03-06T03:13:50.301Z,2.40
2023-03-06T03:16:20.710Z,2.30
2023-03-06T03:18:53.298Z,2.20
2023-03-06T03:21:23.766Z,1.90
2023-03-06T03:24:10.938Z,1.60
2023-03-06T03:26:44.251Z,1.50
2023-03-06T03:29:23.375Z,1.50
2023-03-06T03:31:54.006Z,1.40
2023-03-06T03:34:25.327Z,1.40
2023-03-06T03:37:04.457Z,1.50
2023-03-06T03:39:38.358Z,1.50
2023-03-06T03:42:09.013Z,1.50
2023-03-06T03:44:42.742Z,1.60
2023-03-06T03:47:13.150Z,1.60
2023-03-06T03:49:43.792Z,1.40
2023-03-06T03:52:14.934Z,1.20
2023-03-06T03:54:48.565Z,1.10
2023-03-06T03:57:19.557Z,1.00
2023-03-06T03:59:51.752Z,0.90
2023-03-06T04:02:26.540Z,0.90
2023-03-06T04:04:57.453Z,0.90
2023-03-06T04:07:33.172Z,0.90
2023-03-06T04:10:01.855Z,0.80
2023-03-06T04:12:39.132Z,0.80
2023-03-06T04:15:25.121Z,0.70
2023-03-06T04:17:53.978Z,0.70
2023-03-06T04:20:29.430Z,0.70
2023-03-06T04:23:00.102Z,0.70
2023-03-06T04:25:31.649Z,0.70
2023-03-06T04:28:02.393Z,0.70
2023-03-06T04:30:35.388Z,0.80
2023-03-06T04:33:07.070Z,1.00
2023-03-06T04:35:43.136Z,1.00
2023-03-06T04:38:18.691Z,1.10
2023-03-06T04:40:54.282Z,1.10
2023-03-06T04:43:27.100Z,1.10
2023-03-06T04:46:19.270Z,1.10
2023-03-06T04:48:56.276Z,1.10
2023-03-06T04:51:26.848Z,1.30
2023-03-06T04:54:04.268Z,1.40
2023-03-06T04:56:41.435Z,1.50
2023-03-06T04:59:15.654Z,1.50
2023-03-06T05:01:47.817Z,1.40
2023-03-06T05:04:24.328Z,1.30
2023-03-06T05:07:13.068Z,1.30
2023-03-06T05:09:54.269Z,1.30
2023-03-06T05:12:26.716Z,1.30
2023-03-06T05:15:07.199Z,1.20
2023-03-06T05:17:43.363Z,1.00
2023-03-06T05:20:19.498Z,0.90
2023-03-06T05:22:55.570Z,0.80
2023-03-06T05:25:26.837Z,0.70
2023-03-06T05:28:08.148Z,0.70
2023-03-06T05:30:45.266Z,0.70
2023-03-06T05:33:24.021Z,0.60
2023-03-06T05:35:56.085Z,0.60
2023-03-06T05:38:26.327Z,0.60
2023-03-06T05:40:54.826Z,0.60
2023-03-06T05:43:25.683Z,0.50
2023-03-06T05:46:11.919Z,0.50
2023-03-06T05:48:46.770Z,0.50
2023-03-06T05:51:17.531Z,0.50
2023-03-06T05:53:54.970Z,0.50
2023-03-06T05:59:29.619Z,0.60
2023-03-06T06:02:05.670Z,0.50
2023-03-06T06:04:42.237Z,0.60
2023-03-06T06:07:18.011Z,0.60
2023-03-06T06:09:49.041Z,0.70
2023-03-06T06:12:28.493Z,0.70
2023-03-06T06:15:03.804Z,0.70
2023-03-06T06:17:45.676Z,0.80
2023-03-06T06:20:22.527Z,0.80
2023-03-06T06:22:55.898Z,0.80
2023-03-06T06:25:34.068Z,0.80
2023-03-06T06:28:12.629Z,0.80
2023-03-06T06:30:44.083Z,0.90
2023-03-06T06:33:16.477Z,1.00
2023-03-06T06:35:52.832Z,1.10
2023-03-06T06:38:23.726Z,1.30
2023-03-06T06:41:30.776Z,1.30
2023-03-06T06:43:45.524Z,1.40
2023-03-06T06:46:56.234Z,1.40
2023-03-06T06:49:10.330Z,1.40
2023-03-06T06:51:42.726Z,1.40
2023-03-06T06:54:14.592Z,1.30
2023-03-06T06:56:43.362Z,1.30
2023-03-06T06:59:17.333Z,1.30
2023-03-06T07:01:49.232Z,1.40
2023-03-06T07:04:21.207Z,1.30
2023-03-06T07:06:56.283Z,1.30
2023-03-06T07:09:27.755Z,1.40
2023-03-06T07:11:58.973Z,1.60
2023-03-06T07:14:31.988Z,1.60
2023-03-06T07:17:05.458Z,1.60
2023-03-06T07:19:37.969Z,1.50
2023-03-06T07:22:13.185Z,1.40
2023-03-06T07:24:44.866Z,1.20
2023-03-06T07:27:17.291Z,1.10
2023-03-06T07:29:49.920Z,1.30
2023-03-06T07:32:21.121Z,1.30
2023-03-06T07:35:05.706Z,1.30
2023-03-06T07:37:44.943Z,1.50
2023-03-06T07:40:18.028Z,1.50
2023-03-06T07:42:48.485Z,1.50
2023-03-06T07:45:19.579Z,1.40
2023-03-06T07:47:50.952Z,1.40
2023-03-06T07:50:22.897Z,1.50
2023-03-06T07:52:54.754Z,1.50
2023-03-06T07:55:24.708Z,1.40
2023-03-06T07:57:54.841Z,1.30
2023-03-06T08:00:27.023Z,1.20
2023-03-06T08:02:57.521Z,1.20
2023-03-06T08:05:29.416Z,1.20
2023-03-06T08:08:01.952Z,1.40
2023-03-06T08:10:32.632Z,1.50
2023-03-06T08:13:03.244Z,1.60
2023-03-06T08:15:35.377Z,1.70
2023-03-06T08:18:06.617Z,1.70
2023-03-06T08:20:39.208Z,1.70
2023-03-06T08:23:14.972Z,1.60
2023-03-06T08:25:43.592Z,1.70
2023-03-06T08:28:13.934Z,1.80
2023-03-06T08:30:43.793Z,1.90
2023-03-06T08:33:14.104Z,2.10
2023-03-06T08:35:45.615Z,2.30
2023-03-06T08:38:17.568Z,2.30
2023-03-06T08:40:46.433Z,2.30
2023-03-06T08:43:16.637Z,2.20
2023-03-06T08:45:45.045Z,2.30
2023-03-06T08:48:13.658Z,2.30
2023-03-06T08:50:46.648Z,2.60
2023-03-06T08:53:19.681Z,2.70
2023-03-06T08:55:50.080Z,2.90
2023-03-06T08:58:21.365Z,3.10
2023-03-06T09:00:55.040Z,3.10
2023-03-06T09:03:25.787Z,3.20
2023-03-06T09:05:54.772Z,3.40
2023-03-06T09:08:29.966Z,3.50
2023-03-06T09:11:00.731Z,3.70
2023-03-06T09:13:31.241Z,3.90
2023-03-06T09:16:02.328Z,3.80
2023-03-06T09:18:32.479Z,3.80
2023-03-06T09:21:08.052Z,3.90
2023-03-06T09:23:41.197Z,4.00
2023-03-06T09:26:32.864Z,3.90
2023-03-06T09:29:29.482Z,4.00
2023-03-06T09:32:09.023Z,4.00
2023-03-06T09:34:51.756Z,3.90
2023-03-06T09:37:27.735Z,3.90
2023-03-06T09:40:02.368Z,3.90
2023-03-06T09:42:40.181Z,4.00
2023-03-06T09:45:16.913Z,4.10
2023-03-06T09:47:58.151Z,4.10
2023-03-06T09:50:44.744Z,3.80
2023-03-06T09:53:45.646Z,3.70
2023-03-06T09:56:31.045Z,3.80
2023-03-06T09:59:08.964Z,3.60
2023-03-06T10:01:42.445Z,3.70
2023-03-06T10:04:30.840Z,3.70
2023-03-06T10:07:15.419Z,3.70
2023-03-06T10:09:55.125Z,3.60
2023-03-06T10:12:30.205Z,3.50
2023-03-06T10:15:09.367Z,3.50
2023-03-06T10:17:44.309Z,3.40
2023-03-06T10:20:27.327Z,3.50
2023-03-06T10:23:12.064Z,3.60
2023-03-06T10:25:49.738Z,3.70
2023-03-06T10:28:28.552Z,3.70
2023-03-06T10:31:07.517Z,3.80
2023-03-06T10:33:52.872Z,3.90
2023-03-06T10:36:29.233Z,4.20
2023-03-06T10:39:00.909Z,4.10
2023-03-06T10:41:35.852Z,4.10
2023-03-06T10:44:30.256Z,4.10
2023-03-06T10:47:19.752Z,4.40
2023-03-06T10:50:00.689Z,4.80
2023-03-06T10:52:35.656Z,5.20
2023-03-06T10:55:28.450Z,5.80
2023-03-06T10:58:27.904Z,6.00
2023-03-06T11:01:27.586Z,6.20
2023-03-06T11:04:30.440Z,6.30
2023-03-06T11:07:22.840Z,6.60
2023-03-06T11:10:08.374Z,6.80
2023-03-06T11:12:39.524Z,7.10
2023-03-06T11:15:22.863Z,6.40
2023-03-06T11:18:09.357Z,6.40
2023-03-06T11:20:51.838Z,6.50
2023-03-06T11:23:39.303Z,6.30
2023-03-06T11:26:36.847Z,6.20
2023-03-06T11:29:25.335Z,6.10
2023-03-06T11:32:07.340Z,5.80
2023-03-06T11:34:53.790Z,5.70
2023-03-06T11:37:40.767Z,6.30
2023-03-06T11:40:19.343Z,6.50
2023-03-06T11:42:58.755Z,7.10
2023-03-06T11:45:32.107Z,6.80
2023-03-06T11:48:24.791Z,6.70
2023-03-06T11:51:06.399Z,6.90
2023-03-06T11:53:42.025Z,6.60
2023-03-06T11:56:37.539Z,6.10
2023-03-06T11:59:30.658Z,6.00
2023-03-06T12:02:15.248Z,5.80
2023-03-06T12:04:53.432Z,5.90
2023-03-06T12:07:30.696Z,6.10
2023-03-06T12:10:16.177Z,6.20
2023-03-06T12:13:08.883Z,6.20
2023-03-06T12:15:55.558Z,6.10
2023-03-06T12:18:44.331Z,6.00
2023-03-06T12:21:19.576Z,6.10
2023-03-06T12:24:23.976Z,6.10
2023-03-06T12:27:33.861Z,6.00
2023-03-06T12:30:35.815Z,5.90
2023-03-06T12:33:15.887Z,5.90
2023-03-06T12:36:00.170Z,5.80
2023-03-06T12:38:47.812Z,5.80
2023-03-06T12:41:38.565Z,5.90
2023-03-06T12:44:44.696Z,5.70
2023-03-06T12:47:19.987Z,5.60
2023-03-06T12:49:58.291Z,5.60
2023-03-06T12:52:36.187Z,5.50
2023-03-06T12:55:15.938Z,5.40
2023-03-06T12:58:03.750Z,5.50
2023-03-06T13:01:05.262Z,5.60
2023-03-06T13:03:51.068Z,5.70
2023-03-06T13:06:55.322Z,5.80
2023-03-06T13:09:39.509Z,5.90
2023-03-06T13:12:42.426Z,5.90
2023-03-06T13:15:46.900Z,6.00
2023-03-06T13:18:52.526Z,5.90
2023-03-06T13:22:00.313Z,5.90
2023-03-06T13:24:32.982Z,5.90
2023-03-06T13:27:14.612Z,5.80
2023-03-06T13:30:22.052Z,5.70
2023-03-06T13:32:57.179Z,5.60
2023-03-06T13:35:52.891Z,5.50
2023-03-06T13:39:15.678Z,5.30
2023-03-06T13:41:57.126Z,5.30
2023-03-06T13:44:51.104Z,5.30
2023-03-06T13:50:43.691Z,5.40
2023-03-06T13:53:49.969Z,5.40
2023-03-06T13:56:45.409Z,5.50
2023-03-06T14:00:08.569Z,5.60
2023-03-06T14:03:23.323Z,5.80
2023-03-06T14:05:56.437Z,6.00
2023-03-06T14:08:38.555Z,6.10
2023-03-06T14:11:18.928Z,6.00
2023-03-06T14:13:56.014Z,5.60
2023-03-06T14:16:48.654Z,5.40
2023-03-06T14:19:26.642Z,5.30
2023-03-06T14:22:07.683Z,5.30
2023-03-06T14:24:43.165Z,5.20
2023-03-06T14:27:23.973Z,5.20
2023-03-06T14:30:08.912Z,5.20
2023-03-06T14:32:42.942Z,5.40
2023-03-06T14:35:29.057Z,5.60
2023-03-06T14:38:06.655Z,5.70
2023-03-06T14:40:48.267Z,5.70
2023-03-06T14:43:28.519Z,5.70
2023-03-06T14:46:05.340Z,5.80
2023-03-06T14:48:48.172Z,6.00
2023-03-06T14:51:33.506Z,6.00
2023-03-06T14:54:09.867Z,6.00
2023-03-06T14:56:51.073Z,6.10
2023-03-06T14:59:26.555Z,5.80
2023-03-06T15:02:02.848Z,6.00
2023-03-06T15:04:47.004Z,5.80
2023-03-06T15:07:22.765Z,5.80
2023-03-06T15:09:56.248Z,5.80
2023-03-06T15:12:41.186Z,5.80
2023-03-06T15:15:36.830Z,5.80
2023-03-06T15:18:34.220Z,6.00
2023-03-06T15:21:11.885Z,6.00
2023-03-06T15:23:46.355Z,5.90
2023-03-06T15:26:35.890Z,5.80
2023-03-06T15:29:25.559Z,5.90
2023-03-06T15:32:32.351Z,5.80
2023-03-06T15:35:35.762Z,5.70
2023-03-06T15:38:25.366Z,5.70
2023-03-06T15:41:05.745Z,5.70
2023-03-06T15:43:39.936Z,5.80
2023-03-06T15:46:37.284Z,5.80
2023-03-06T15:49:10.962Z,5.70
2023-03-06T15:51:41.555Z,5.60
2023-03-06T15:54:17.628Z,5.60
2023-03-06T15:57:11.561Z,5.50
2023-03-06T15:59:45.097Z,5.40
2023-03-06T16:02:37.643Z,5.40
2023-03-06T16:05:16.685Z,5.40
2023-03-06T16:07:48.094Z,5.20
2023-03-06T16:10:25.916Z,5.20
2023-03-06T16:13:06.411Z,5.20
2023-03-06T16:15:50.400Z,5.10
2023-03-06T16:18:31.844Z,5.10
2023-03-06T16:21:01.778Z,5.20
2023-03-06T16:23:35.084Z,5.10
2023-03-06T16:26:05.929Z,5.10
2023-03-06T16:28:40.940Z,5.10
2023-03-06T16:31:28.158Z,5.00
2023-03-06T16:33:58.442Z,5.10
2023-03-06T16:36:32.375Z,5.00
2023-03-06T16:39:06.562Z,5.00
2023-03-06T16:41:43.610Z,4.90
2023-03-06T16:44:14.260Z,4.90
2023-03-06T16:46:50.993Z,4.90
2023-03-06T16:49:30.509Z,4.80
2023-03-06T16:52:07.429Z,4.80
2023-03-06T16:54:44.520Z,4.80
2023-03-06T16:57:17.480Z,4.70
2023-03-06T16:59:48.511Z,4.60
2023-03-06T17:02:21.871Z,4.60
2023-03-06T17:04:55.237Z,4.50
2023-03-06T17:07:25.840Z,4.50
2023-03-06T17:09:56.601Z,4.50
2023-03-06T17:12:27.485Z,4.50
2023-03-06T17:15:02.577Z,4.30
2023-03-06T17:17:42.762Z,4.40
2023-03-06T17:20:29.907Z,4.40
2023-03-06T17:23:01.611Z,4.40
2023-03-06T17:25:47.267Z,4.30
2023-03-06T17:28:20.428Z,4.40
2023-03-06T17:30:57.657Z,4.40
2023-03-06T17:33:50.918Z,4.30
2023-03-06T17:36:23.504Z,4.20
2023-03-06T17:38:55.708Z,4.20
2023-03-06T17:41:33.203Z,4.20
2023-03-06T17:44:05.668Z,4.10
2023-03-06T17:46:36.983Z,4.10
2023-03-06T17:49:09.299Z,4.10
2023-03-06T17:51:45.884Z,4.10
2023-03-06T17:54:25.735Z,4.00
2023-03-06T17:57:06.065Z,4.00
2023-03-06T17:59:39.360Z,4.00
2023-03-06T18:02:26.135Z,3.90
2023-03-06T18:05:20.111Z,3.90
2023-03-06T18:07:56.866Z,3.90
2023-03-06T18:10:35.502Z,4.00
2023-03-06T18:13:07.997Z,3.90
2023-03-06T18:15:40.879Z,3.90
2023-03-06T18:18:17.551Z,3.90
2023-03-06T18:21:02.287Z,3.90
2023-03-06T18:24:02.976Z,3.90
2023-03-06T18:29:44.326Z,3.80
2023-03-06T18:32:42.264Z,3.80
2023-03-06T18:35:18.284Z,3.90
2023-03-06T18:37:52.975Z,3.80
2023-03-06T18:43:15.699Z,3.70
2023-03-06T18:45:55.193Z,3.60
2023-03-06T18:48:46.625Z,3.60
2023-03-06T18:51:27.641Z,3.60
2023-03-06T18:54:10.484Z,3.60
2023-03-06T18:56:52.332Z,3.60
2023-03-06T18:59:30.798Z,3.50
2023-03-06T19:02:06.920Z,3.50
2023-03-06T19:04:39.886Z,3.50
2023-03-06T19:07:17.864Z,3.40
2023-03-06T19:09:54.691Z,3.30
2023-03-06T19:12:35.948Z,3.40
2023-03-06T19:15:10.518Z,3.30
2023-03-06T19:17:38.999Z,3.30
2023-03-06T19:20:22.573Z,3.20
2023-03-06T19:23:05.518Z,3.20
2023-03-06T19:25:41.726Z,3.30
2023-03-06T19:28:18.830Z,3.30
2023-03-06T19:30:57.461Z,3.20
2023-03-06T19:33:44.177Z,3.30
2023-03-06T19:36:33.991Z,3.20
2023-03-06T19:39:11.527Z,3.20
2023-03-06T19:41:53.407Z,3.30
2023-03-06T19:44:25.821Z,3.20
2023-03-06T19:47:03.380Z,3.20
2023-03-06T19:53:03.519Z,3.20
2023-03-06T19:55:38.459Z,3.10
2023-03-06T19:58:31.036Z,3.10
2023-03-06T20:01:11.157Z,3.10
2023-03-06T20:03:46.990Z,3.00
2023-03-06T20:06:37.303Z,3.00
2023-03-06T20:09:12.746Z,3.00
2023-03-06T20:11:47.958Z,3.00
2023-03-06T20:14:29.709Z,2.90
2023-03-06T20:17:04.658Z,2.90
2023-03-06T20:19:36.099Z,2.80
2023-03-06T20:22:13.804Z,2.80
2023-03-06T20:24:47.382Z,2.70
2023-03-06T20:27:21.925Z,2.70
2023-03-06T20:29:53.778Z,2.70
2023-03-06T20:32:25.455Z,2.60
2023-03-06T20:34:55.968Z,2.50
2023-03-06T20:37:34.198Z,2.50
2023-03-06T20:40:14.645Z,2.40
2023-03-06T20:42:49.775Z,2.40
2023-03-06T20:45:36.477Z,2.30
2023-03-06T20:48:08.132Z,2.30
2023-03-06T20:50:43.679Z,2.20
2023-03-06T20:53:14.138Z,2.20
2023-03-06T20:55:48.489Z,2.10
2023-03-06T20:58:23.464Z,2.10
2023-03-06T21:00:55.426Z,2.00
2023-03-06T21:03:27.264Z,1.90
2023-03-06T21:05:58.848Z,2.00
2023-03-06T21:08:33.384Z,1.90
2023-03-06T21:11:04.411Z,1.90
2023-03-06T21:13:35.213Z,1.80
2023-03-06T21:16:10.309Z,1.80
2023-03-06T21:18:45.128Z,1.80
2023-03-06T21:21:25.860Z,1.80
2023-03-06T21:24:14.514Z,1.80
2023-03-06T21:26:46.235Z,1.70
2023-03-06T21:29:20.941Z,1.70
2023-03-06T21:31:58.272Z,1.60
2023-03-06T21:37:29.138Z,1.60
2023-03-06T21:40:26.462Z,1.60
2023-03-06T21:43:04.083Z,1.50
2023-03-06T21:45:38.579Z,1.50
2023-03-06T21:48:12.818Z,1.50
2023-03-06T21:50:45.253Z,1.50
2023-03-06T21:53:23.146Z,1.40
2023-03-06T21:55:56.612Z,1.40
2023-03-06T21:58:27.828Z,1.40
2023-03-06T22:00:59.858Z,1.40
2023-03-06T22:03:32.665Z,1.40
2023-03-06T22:06:12.443Z,1.40
2023-03-06T22:08:45.479Z,1.30
2023-03-06T22:11:24.114Z,1.40
2023-03-06T22:13:55.126Z,1.30
2023-03-06T22:16:27.070Z,1.30
2023-03-06T22:19:01.224Z,1.30
2023-03-06T22:21:30.320Z,1.30
2023-03-06T22:24:02.696Z,1.30
2023-03-06T22:26:35.950Z,1.30
2023-03-06T22:29:07.215Z,1.30
2023-03-06T22:31:40.383Z,1.30
2023-03-06T22:34:12.992Z,1.40
2023-03-06T22:36:44.471Z,1.30
2023-03-06T22:39:16.087Z,1.40
2023-03-06T22:41:46.534Z,1.40
2023-03-06T22:44:20.855Z,1.40
2023-03-06T22:46:53.794Z,1.50
2023-03-06T22:49:43.157Z,1.50
2023-03-06T22:52:15.251Z,1.50
2023-03-06T22:54:49.776Z,1.50
2023-03-06T22:57:24.408Z,1.50
2023-03-06T22:59:56.392Z,1.60
2023-03-06T23:02:33.475Z,1.60
2023-03-06T23:05:07.356Z,1.60
2023-03-06T23:07:44.045Z,1.70
2023-03-06T23:10:18.073Z,1.70
2023-03-06T23:12:49.273Z,1.80
2023-03-06T23:15:24.135Z,1.80
2023-03-06T23:17:55.714Z,1.80
2023-03-06T23:20:51.510Z,1.80
2023-03-06T23:23:22.988Z,1.90
2023-03-06T23:25:57.170Z,1.90
2023-03-06T23:28:26.196Z,1.90
2023-03-06T23:30:56.771Z,1.90
2023-03-06T23:33:25.611Z,1.80
2023-03-06T23:36:02.760Z,1.80
2023-03-06T23:38:33.529Z,1.80
2023-03-06T23:41:04.524Z,1.90
2023-03-06T23:43:35.974Z,1.90
2023-03-06T23:46:06.430Z,1.90
2023-03-06T23:48:38.756Z,1.90
2023-03-06T23:51:18.659Z,1.90
2023-03-06T23:53:55.471Z,1.90
2023-03-06T23:56:33.125Z,1.90
2023-03-06T23:59:07.152Z,1.90
